createdAt,value
2018-05-17T00:02:06.564Z,12.80
2018-05-17T00:04:34.069Z,12.80
2018-05-17T00:07:01.584Z,12.90
2018-05-17T00:09:29.089Z,12.80
2018-05-17T00:11:56.624Z,12.90
2018-05-17T00:14:24.900Z,12.80
2018-05-17T00:16:52.432Z,12.80
2018-05-17T00:19:19.927Z,12.90
2018-05-17T00:21:47.453Z,12.90
2018-05-17T00:24:14.953Z,12.90
2018-05-17T00:26:42.490Z,12.90
2018-05-17T00:29:09.985Z,13.00
2018-05-17T00:31:37.540Z,12.90
2018-05-17T00:34:05.040Z,12.90
2018-05-17T00:36:32.651Z,12.90
2018-05-17T00:39:00.179Z,12.90
2018-05-17T00:41:27.696Z,12.90
2018-05-17T00:43:55.967Z,12.90
2018-05-17T00:46:23.502Z,12.80
2018-05-17T00:48:50.995Z,12.90
2018-05-17T00:51:18.520Z,12.90
2018-05-17T00:53:46.019Z,12.90
2018-05-17T00:56:13.543Z,12.80
2018-05-17T00:58:41.807Z,12.80
2018-05-17T01:01:09.327Z,12.80
2018-05-17T01:03:36.823Z,12.80
2018-05-17T01:06:04.358Z,12.80
2018-05-17T01:08:32.620Z,12.80
2018-05-17T01:11:00.143Z,12.80
2018-05-17T01:13:27.643Z,12.80
2018-05-17T01:15:55.194Z,12.70
2018-05-17T01:18:22.717Z,12.70
2018-05-17T01:20:50.982Z,12.70
2018-05-17T01:23:18.506Z,12.70
2018-05-17T01:25:46.021Z,12.70
2018-05-17T01:28:13.545Z,12.70
2018-05-17T01:30:41.068Z,12.80
2018-05-17T01:33:08.588Z,12.70
2018-05-17T01:35:36.084Z,12.70
2018-05-17T01:38:15.507Z,12.70
2018-05-17T01:40:43.026Z,12.70
2018-05-17T01:43:10.552Z,12.70
2018-05-17T01:45:38.051Z,12.70
2018-05-17T01:48:05.575Z,12.70
2018-05-17T01:50:33.837Z,12.70
2018-05-17T01:53:01.360Z,12.70
2018-05-17T01:55:28.935Z,12.70
2018-05-17T01:57:56.521Z,12.70
2018-05-17T02:00:24.759Z,12.70
2018-05-17T02:02:52.579Z,12.70
2018-05-17T02:05:20.131Z,12.70
2018-05-17T02:07:47.652Z,12.70
2018-05-17T02:10:15.143Z,12.70
2018-05-17T02:12:42.663Z,12.70
2018-05-17T02:15:10.164Z,12.60
2018-05-17T02:17:37.685Z,12.70
2018-05-17T02:20:05.184Z,12.70
2018-05-17T02:22:32.712Z,12.70
2018-05-17T02:25:01.014Z,12.80
2018-05-17T02:27:28.552Z,12.70
2018-05-17T02:29:56.063Z,12.80
2018-05-17T02:32:23.585Z,12.80
2018-05-17T02:34:51.119Z,12.80
2018-05-17T02:37:18.607Z,12.80
2018-05-17T02:39:46.126Z,12.90
2018-05-17T02:42:13.625Z,12.80
2018-05-17T02:44:41.140Z,12.80
2018-05-17T02:47:08.660Z,12.80
2018-05-17T02:49:36.189Z,12.80
2018-05-17T02:52:03.703Z,12.80
2018-05-17T02:54:32.001Z,12.80
2018-05-17T02:56:59.524Z,12.80
2018-05-17T02:59:27.036Z,12.80
2018-05-17T03:01:55.312Z,12.80
2018-05-17T03:04:23.619Z,12.80
2018-05-17T03:06:51.127Z,12.80
2018-05-17T03:09:18.664Z,12.80
2018-05-17T03:11:46.164Z,12.80
2018-05-17T03:14:13.690Z,12.80
2018-05-17T03:16:41.953Z,12.80
2018-05-17T03:19:09.493Z,12.80
2018-05-17T03:21:36.992Z,12.80
2018-05-17T03:24:04.523Z,12.80
2018-05-17T03:26:32.018Z,12.80
2018-05-17T03:28:59.539Z,12.80
2018-05-17T03:31:27.096Z,12.90
2018-05-17T03:33:54.622Z,12.90
2018-05-17T03:36:22.117Z,12.90
2018-05-17T03:38:49.650Z,12.90
2018-05-17T03:41:17.191Z,12.90
2018-05-17T03:43:45.460Z,12.80
2018-05-17T03:46:12.976Z,12.80
2018-05-17T03:48:40.483Z,12.80
2018-05-17T03:51:08.039Z,12.80
2018-05-17T03:53:35.537Z,12.90
2018-05-17T03:56:03.052Z,12.90
2018-05-17T03:58:30.551Z,12.90
2018-05-17T04:01:09.935Z,12.90
2018-05-17T04:03:49.330Z,12.90
2018-05-17T04:06:28.618Z,12.90
2018-05-17T04:08:56.138Z,12.90
2018-05-17T04:11:24.431Z,12.90
2018-05-17T04:13:52.711Z,12.90
2018-05-17T04:16:21.002Z,12.90
2018-05-17T04:18:49.263Z,12.90
2018-05-17T04:21:16.808Z,12.90
2018-05-17T04:23:44.303Z,12.90
2018-05-17T04:26:11.851Z,12.90
2018-05-17T04:28:39.357Z,12.90
2018-05-17T04:31:06.893Z,12.90
2018-05-17T04:33:34.408Z,13.00
2018-05-17T04:36:01.936Z,13.00
2018-05-17T04:38:29.443Z,13.00
2018-05-17T04:40:56.975Z,13.10
2018-05-17T04:43:24.511Z,13.10
2018-05-17T04:45:52.823Z,13.10
2018-05-17T04:48:20.320Z,13.10
2018-05-17T04:50:47.863Z,13.10
2018-05-17T04:53:15.383Z,13.10
2018-05-17T04:55:42.897Z,13.00
2018-05-17T04:58:10.400Z,13.00
2018-05-17T05:00:37.921Z,13.00
2018-05-17T05:03:06.201Z,13.00
2018-05-17T05:05:33.720Z,13.00
2018-05-17T05:08:01.213Z,13.00
2018-05-17T05:10:28.735Z,13.10
2018-05-17T05:12:56.263Z,13.10
2018-05-17T05:15:23.792Z,13.00
2018-05-17T05:17:51.335Z,13.00
2018-05-17T05:20:18.840Z,13.00
2018-05-17T05:22:46.364Z,12.90
2018-05-17T05:25:13.879Z,13.00
2018-05-17T05:27:41.423Z,12.90
2018-05-17T05:30:08.919Z,13.00
2018-05-17T05:32:36.455Z,13.00
2018-05-17T05:35:03.962Z,13.00
2018-05-17T05:37:31.564Z,13.10
2018-05-17T05:39:59.789Z,13.40
2018-05-17T05:42:27.324Z,13.40
2018-05-17T05:44:54.864Z,13.60
2018-05-17T05:47:22.392Z,13.70
2018-05-17T05:49:49.896Z,13.70
2018-05-17T05:52:18.200Z,13.70
2018-05-17T05:54:45.707Z,13.70
2018-05-17T05:57:13.223Z,13.60
2018-05-17T05:59:41.493Z,13.80
2018-05-17T06:02:09.020Z,13.80
2018-05-17T06:04:36.559Z,13.70
2018-05-17T06:07:04.835Z,13.60
2018-05-17T06:09:33.104Z,13.70
2018-05-17T06:12:00.625Z,13.60
2018-05-17T06:14:28.120Z,13.60
2018-05-17T06:16:55.643Z,13.60
2018-05-17T06:19:23.175Z,13.60
2018-05-17T06:21:50.707Z,13.60
2018-05-17T06:24:18.203Z,13.60
2018-05-17T06:26:45.695Z,13.50
2018-05-17T06:29:13.225Z,13.40
2018-05-17T06:31:40.723Z,13.30
2018-05-17T06:34:08.268Z,13.40
2018-05-17T06:36:35.771Z,13.50
2018-05-17T06:39:04.912Z,13.60
2018-05-17T06:41:32.416Z,13.60
2018-05-17T06:43:59.964Z,13.60
2018-05-17T06:46:27.448Z,13.50
2018-05-17T06:48:55.738Z,13.50
2018-05-17T06:51:24.052Z,13.50
2018-05-17T06:53:51.591Z,13.50
2018-05-17T06:56:19.857Z,13.40
2018-05-17T06:58:47.377Z,13.40
2018-05-17T07:01:14.965Z,13.40
2018-05-17T07:03:42.887Z,13.40
2018-05-17T07:06:10.371Z,13.50
2018-05-17T07:08:37.907Z,13.40
2018-05-17T07:11:05.415Z,13.40
2018-05-17T07:13:33.691Z,13.50
2018-05-17T07:16:01.187Z,13.50
2018-05-17T07:18:29.570Z,13.50
2018-05-17T07:20:56.991Z,13.50
2018-05-17T07:23:24.527Z,13.50
2018-05-17T07:25:52.033Z,13.40
2018-05-17T07:28:20.337Z,13.30
2018-05-17T07:30:47.832Z,13.20
2018-05-17T07:33:15.353Z,13.10
2018-05-17T07:35:42.896Z,13.10
2018-05-17T07:38:11.188Z,13.20
2018-05-17T07:40:39.455Z,13.30
2018-05-17T07:43:06.979Z,13.20
2018-05-17T07:45:34.496Z,13.30
2018-05-17T07:48:02.027Z,13.30
2018-05-17T07:50:29.523Z,13.30
2018-05-17T07:52:57.023Z,13.20
2018-05-17T07:55:25.337Z,13.10
2018-05-17T07:57:52.830Z,13.10
2018-05-17T08:00:20.354Z,13.10
2018-05-17T08:02:48.611Z,13.10
2018-05-17T08:05:16.147Z,13.10
2018-05-17T08:07:43.641Z,13.10
2018-05-17T08:10:11.155Z,13.00
2018-05-17T08:12:39.419Z,12.90
2018-05-17T08:15:06.961Z,12.90
2018-05-17T08:17:34.455Z,12.90
2018-05-17T08:20:01.972Z,12.90
2018-05-17T08:22:30.239Z,13.00
2018-05-17T08:24:58.543Z,13.00
2018-05-17T08:27:26.831Z,13.10
2018-05-17T08:29:55.115Z,13.20
2018-05-17T08:32:23.395Z,13.20
2018-05-17T08:34:50.920Z,13.10
2018-05-17T08:37:18.432Z,13.20
2018-05-17T08:39:45.951Z,13.20
2018-05-17T08:42:13.471Z,13.20
2018-05-17T08:44:40.992Z,13.30
2018-05-17T08:47:08.514Z,13.20
2018-05-17T08:49:36.093Z,13.10
2018-05-17T08:52:03.601Z,13.20
2018-05-17T08:54:31.140Z,13.30
2018-05-17T08:56:58.671Z,13.30
2018-05-17T08:59:26.215Z,13.40
2018-05-17T09:01:53.786Z,13.50
2018-05-17T09:04:21.319Z,13.40
2018-05-17T09:06:48.849Z,13.40
2018-05-17T09:09:16.339Z,13.40
2018-05-17T09:11:43.928Z,13.50
2018-05-17T09:14:11.440Z,13.50
2018-05-17T09:16:38.985Z,13.50
2018-05-17T09:19:06.524Z,13.60
2018-05-17T09:21:34.051Z,13.60
2018-05-17T09:24:01.557Z,13.80
2018-05-17T09:26:29.080Z,13.60
2018-05-17T09:28:57.338Z,13.70
2018-05-17T09:31:25.626Z,13.70
2018-05-17T09:33:53.898Z,13.60
2018-05-17T09:36:21.424Z,13.60
2018-05-17T09:38:49.697Z,13.80
2018-05-17T09:41:17.294Z,13.80
2018-05-17T09:43:44.778Z,13.80
2018-05-17T09:46:12.314Z,13.80
2018-05-17T09:48:39.846Z,13.90
2018-05-17T09:51:07.376Z,13.80
2018-05-17T09:53:35.646Z,13.90
2018-05-17T09:56:03.969Z,14.00
2018-05-17T09:58:31.474Z,14.00
2018-05-17T10:00:59.069Z,14.10
2018-05-17T10:03:26.597Z,14.30
2018-05-17T10:05:54.112Z,14.20
2018-05-17T10:08:21.615Z,14.00
2018-05-17T10:10:49.897Z,14.00
2018-05-17T10:13:18.167Z,13.90
2018-05-17T10:15:45.680Z,13.90
2018-05-17T10:18:13.205Z,14.00
2018-05-17T10:20:40.858Z,13.90
2018-05-17T10:23:08.398Z,13.80
2018-05-17T10:25:35.890Z,13.80
2018-05-17T10:28:03.412Z,14.00
2018-05-17T10:30:31.671Z,13.70
2018-05-17T10:32:59.183Z,13.70
2018-05-17T10:35:27.452Z,13.80
2018-05-17T10:37:54.971Z,13.80
2018-05-17T10:40:22.473Z,13.90
2018-05-17T10:42:49.995Z,14.00
2018-05-17T10:45:17.487Z,13.80
2018-05-17T10:47:45.028Z,13.80
2018-05-17T10:50:13.295Z,13.80
2018-05-17T10:52:40.829Z,13.80
2018-05-17T10:55:08.325Z,13.60
2018-05-17T10:57:35.878Z,13.70
2018-05-17T11:00:03.382Z,13.80
2018-05-17T11:02:30.929Z,13.70
2018-05-17T11:04:58.411Z,13.80
2018-05-17T11:07:25.957Z,13.80
2018-05-17T11:09:53.456Z,13.90
2018-05-17T11:12:20.987Z,13.90
2018-05-17T11:14:48.491Z,13.90
2018-05-17T11:17:16.021Z,14.00
2018-05-17T11:19:43.533Z,14.00
2018-05-17T11:22:11.089Z,14.10
2018-05-17T11:24:38.615Z,14.10
2018-05-17T11:27:06.887Z,14.10
2018-05-17T11:29:35.375Z,14.00
2018-05-17T11:32:02.896Z,14.00
2018-05-17T11:34:30.427Z,14.10
2018-05-17T11:36:58.708Z,14.00
2018-05-17T11:39:26.243Z,14.00
2018-05-17T11:41:53.748Z,13.90
2018-05-17T11:44:22.052Z,14.40
2018-05-17T11:46:50.319Z,14.60
2018-05-17T11:49:17.857Z,14.60
2018-05-17T11:51:45.356Z,14.60
2018-05-17T11:54:12.884Z,14.70
2018-05-17T11:56:40.390Z,14.60
2018-05-17T11:59:07.925Z,14.80
2018-05-17T12:01:35.479Z,14.70
2018-05-17T12:04:03.019Z,14.80
2018-05-17T12:06:30.520Z,15.00
2018-05-17T12:08:58.063Z,15.10
2018-05-17T12:11:25.583Z,15.60
2018-05-17T12:13:53.119Z,15.50
2018-05-17T12:16:21.424Z,15.70
2018-05-17T12:18:49.739Z,15.60
2018-05-17T12:21:17.263Z,15.60
2018-05-17T12:23:46.983Z,15.50
2018-05-17T12:26:14.491Z,15.50
2018-05-17T12:28:42.797Z,15.40
2018-05-17T12:31:10.325Z,15.40
2018-05-17T12:33:37.857Z,15.60
2018-05-17T12:36:05.368Z,15.60
2018-05-17T12:38:32.964Z,15.50
2018-05-17T12:41:00.447Z,15.50
2018-05-17T12:43:27.983Z,15.70
2018-05-17T12:45:55.495Z,15.80
2018-05-17T12:48:23.006Z,16.00
2018-05-17T12:50:50.699Z,16.00
2018-05-17T12:53:18.124Z,16.20
2018-05-17T12:55:45.651Z,16.30
2018-05-17T12:58:13.152Z,16.00
2018-05-17T13:00:41.440Z,16.30
2018-05-17T13:03:08.961Z,16.30
2018-05-17T13:05:36.483Z,16.20
2018-05-17T13:08:03.980Z,16.10
2018-05-17T13:10:31.504Z,16.10
2018-05-17T13:12:59.848Z,16.00
2018-05-17T13:15:27.354Z,16.00
2018-05-17T13:17:54.843Z,16.20
2018-05-17T13:20:23.128Z,16.20
2018-05-17T13:22:51.402Z,16.20
2018-05-17T13:25:18.922Z,16.20
2018-05-17T13:27:46.430Z,16.20
2018-05-17T13:30:14.032Z,15.70
2018-05-17T13:32:41.528Z,15.80
2018-05-17T13:35:09.045Z,15.80
2018-05-17T13:37:36.590Z,15.90
2018-05-17T13:40:04.836Z,16.40
2018-05-17T13:42:34.064Z,16.50
2018-05-17T13:45:01.608Z,16.50
2018-05-17T13:47:29.149Z,16.40
2018-05-17T13:49:56.668Z,16.50
2018-05-17T13:52:24.951Z,16.40
2018-05-17T13:54:57.889Z,16.50
2018-05-17T13:57:25.396Z,16.50
2018-05-17T13:59:52.943Z,16.30
2018-05-17T14:02:20.553Z,16.40
2018-05-17T14:04:48.736Z,16.20
2018-05-17T14:07:16.274Z,16.20
2018-05-17T14:09:43.848Z,16.20
2018-05-17T14:12:12.088Z,16.00
2018-05-17T14:14:40.358Z,16.20
2018-05-17T14:17:07.886Z,16.20
2018-05-17T14:19:35.382Z,16.40
2018-05-17T14:22:02.895Z,16.20
2018-05-17T14:24:31.165Z,16.20
2018-05-17T14:26:58.707Z,16.20
2018-05-17T14:29:26.210Z,16.30
2018-05-17T14:31:53.741Z,16.30
2018-05-17T14:34:21.247Z,16.40
2018-05-17T14:36:48.859Z,16.30
2018-05-17T14:39:16.372Z,16.40
2018-05-17T14:41:43.908Z,16.50
2018-05-17T14:44:11.414Z,16.40
2018-05-17T14:46:38.986Z,16.40
2018-05-17T14:49:06.484Z,16.60
2018-05-17T14:51:34.008Z,16.60
2018-05-17T14:54:01.508Z,17.20
2018-05-17T14:56:29.053Z,17.90
2018-05-17T14:58:56.549Z,18.10
2018-05-17T15:01:24.070Z,17.80
2018-05-17T15:03:51.936Z,17.50
2018-05-17T15:06:20.210Z,17.40
2018-05-17T15:08:47.826Z,17.40
2018-05-17T15:11:15.353Z,17.30
2018-05-17T15:13:43.285Z,17.00
2018-05-17T15:16:10.801Z,17.00
2018-05-17T15:18:38.331Z,17.00
2018-05-17T15:21:05.836Z,16.90
2018-05-17T15:23:33.367Z,17.00
2018-05-17T15:26:00.863Z,17.20
2018-05-17T15:28:28.387Z,17.40
2018-05-17T15:30:55.924Z,17.50
2018-05-17T15:33:23.465Z,17.50
2018-05-17T15:35:50.968Z,17.60
2018-05-17T15:38:18.500Z,17.70
2018-05-17T15:40:46.056Z,17.70
2018-05-17T15:43:13.911Z,17.60
2018-05-17T15:45:41.455Z,17.40
2018-05-17T15:48:09.810Z,16.90
2018-05-17T15:50:37.331Z,16.90
2018-05-17T15:53:04.876Z,17.00
2018-05-17T15:55:32.392Z,17.10
2018-05-17T15:58:00.675Z,16.90
2018-05-17T16:00:28.943Z,17.00
2018-05-17T16:02:56.476Z,16.90
2018-05-17T16:05:24.013Z,17.20
2018-05-17T16:07:52.280Z,17.40
2018-05-17T16:10:19.823Z,17.40
2018-05-17T16:12:47.335Z,17.30
2018-05-17T16:15:14.996Z,17.40
2018-05-17T16:17:43.172Z,17.10
2018-05-17T16:20:10.707Z,17.10
2018-05-17T16:22:38.207Z,17.20
2018-05-17T16:25:05.753Z,17.30
2018-05-17T16:27:33.252Z,17.50
2018-05-17T16:30:00.806Z,17.60
2018-05-17T16:32:28.317Z,17.80
2018-05-17T16:34:55.873Z,17.60
2018-05-17T16:37:23.453Z,17.60
2018-05-17T16:39:50.983Z,17.50
2018-05-17T16:42:18.481Z,17.20
2018-05-17T16:44:46.001Z,17.10
2018-05-17T16:47:13.511Z,17.00
2018-05-17T16:49:41.076Z,17.00
2018-05-17T16:52:08.571Z,17.10
2018-05-17T16:54:36.895Z,16.90
2018-05-17T16:57:05.156Z,17.00
2018-05-17T16:59:32.688Z,16.90
2018-05-17T17:02:00.192Z,16.90
2018-05-17T17:04:27.712Z,16.90
2018-05-17T17:06:55.285Z,16.60
2018-05-17T17:09:22.752Z,16.70
2018-05-17T17:11:50.249Z,16.70
2018-05-17T17:14:17.800Z,16.50
2018-05-17T17:16:45.368Z,16.50
2018-05-17T17:19:12.876Z,16.60
2018-05-17T17:21:40.392Z,16.50
2018-05-17T17:24:08.653Z,16.50
2018-05-17T17:26:36.168Z,16.50
2018-05-17T17:29:04.443Z,16.50
2018-05-17T17:31:33.822Z,16.30
2018-05-17T17:34:01.342Z,16.30
2018-05-17T17:36:29.064Z,16.30
2018-05-17T17:38:57.267Z,16.30
2018-05-17T17:41:24.778Z,16.20
2018-05-17T17:43:52.287Z,16.20
2018-05-17T17:46:19.809Z,16.10
2018-05-17T17:48:48.103Z,16.00
2018-05-17T17:51:15.635Z,16.00
2018-05-17T17:53:43.123Z,16.00
2018-05-17T17:56:10.696Z,16.00
2018-05-17T17:58:38.985Z,16.00
2018-05-17T18:01:06.536Z,16.00
2018-05-17T18:03:34.045Z,16.00
2018-05-17T18:06:02.453Z,15.90
2018-05-17T18:08:29.960Z,15.90
2018-05-17T18:10:57.535Z,15.90
2018-05-17T18:13:25.055Z,15.80
2018-05-17T18:15:53.360Z,15.80
2018-05-17T18:18:21.762Z,15.70
2018-05-17T18:20:49.275Z,15.80
2018-05-17T18:23:16.800Z,15.70
2018-05-17T18:25:44.350Z,15.70
2018-05-17T18:28:11.855Z,15.70
2018-05-17T18:30:39.385Z,15.60
2018-05-17T18:33:06.927Z,15.50
2018-05-17T18:35:34.680Z,15.50
2018-05-17T18:38:02.261Z,15.60
2018-05-17T18:40:29.868Z,15.50
2018-05-17T18:42:57.391Z,15.50
2018-05-17T18:45:24.895Z,15.50
2018-05-17T18:47:52.442Z,15.40
2018-05-17T18:50:19.976Z,15.50
2018-05-17T18:52:47.487Z,15.40
2018-05-17T18:55:14.999Z,15.40
2018-05-17T18:57:43.288Z,15.20
2018-05-17T19:00:10.876Z,15.20
2018-05-17T19:02:38.403Z,15.20
2018-05-17T19:05:05.875Z,15.10
2018-05-17T19:07:34.261Z,15.00
2018-05-17T19:10:01.844Z,15.00
2018-05-17T19:12:29.358Z,15.00
2018-05-17T19:14:57.631Z,14.90
2018-05-17T19:17:25.945Z,14.90
2018-05-17T19:19:53.571Z,14.80
2018-05-17T19:22:21.111Z,14.80
2018-05-17T19:24:49.391Z,14.70
2018-05-17T19:27:16.935Z,14.70
2018-05-17T19:29:45.218Z,14.60
2018-05-17T19:32:13.500Z,14.60
2018-05-17T19:34:41.042Z,14.60
2018-05-17T19:37:08.665Z,14.60
2018-05-17T19:39:36.143Z,14.60
2018-05-17T19:42:03.644Z,14.50
2018-05-17T19:44:31.167Z,14.50
2018-05-17T19:46:59.436Z,14.50
2018-05-17T19:49:26.984Z,14.50
2018-05-17T19:51:54.484Z,14.40
2018-05-17T19:54:21.997Z,14.40
2018-05-17T19:56:49.504Z,14.40
2018-05-17T19:59:17.032Z,14.30
2018-05-17T20:01:44.524Z,14.30
2018-05-17T20:04:12.039Z,14.20
2018-05-17T20:06:39.540Z,14.20
2018-05-17T20:09:07.054Z,14.20
2018-05-17T20:11:34.551Z,14.10
2018-05-17T20:14:02.067Z,14.10
2018-05-17T20:16:29.590Z,14.10
2018-05-17T20:18:57.116Z,14.20
2018-05-17T20:21:28.193Z,14.20
2018-05-17T20:23:55.720Z,14.20
2018-05-17T20:26:23.988Z,14.10
2018-05-17T20:28:51.559Z,14.10
2018-05-17T20:31:19.056Z,14.20
2018-05-17T20:33:46.595Z,14.20
2018-05-17T20:36:14.135Z,14.20
2018-05-17T20:38:42.635Z,14.10
2018-05-17T20:41:10.159Z,14.10
2018-05-17T20:43:38.530Z,14.00
2018-05-17T20:46:06.833Z,14.00
2018-05-17T20:48:35.127Z,14.00
2018-05-17T20:51:04.139Z,13.90
2018-05-17T20:53:32.456Z,13.90
2018-05-17T20:55:59.972Z,13.90
2018-05-17T20:58:27.495Z,13.90
2018-05-17T21:00:55.020Z,13.90
2018-05-17T21:03:23.315Z,13.70
2018-05-17T21:05:50.840Z,13.70
2018-05-17T21:08:18.355Z,13.70
2018-05-17T21:10:46.656Z,13.60
2018-05-17T21:13:14.924Z,13.50
2018-05-17T21:15:42.441Z,13.40
2018-05-17T21:18:09.963Z,13.40
2018-05-17T21:20:37.503Z,13.30
2018-05-17T21:23:05.011Z,13.30
2018-05-17T21:25:32.558Z,13.30
2018-05-17T21:28:00.076Z,13.30
2018-05-17T21:30:28.457Z,13.30
2018-05-17T21:32:55.929Z,13.30
2018-05-17T21:35:23.471Z,13.30
2018-05-17T21:37:51.743Z,13.20
2018-05-17T21:40:19.298Z,13.20
2018-05-17T21:42:46.824Z,13.20
2018-05-17T21:45:14.359Z,13.10
2018-05-17T21:47:41.897Z,13.10
2018-05-17T21:50:10.192Z,13.10
2018-05-17T21:52:37.699Z,13.10
2018-05-17T21:55:05.228Z,13.10
2018-05-17T21:57:32.730Z,13.10
2018-05-17T22:00:00.248Z,13.10
2018-05-17T22:02:27.771Z,13.00
2018-05-17T22:04:55.325Z,13.00
2018-05-17T22:07:22.876Z,13.00
2018-05-17T22:09:51.170Z,13.00
2018-05-17T22:12:19.456Z,13.00
2018-05-17T22:14:47.726Z,13.00
2018-05-17T22:17:15.255Z,13.00
2018-05-17T22:19:42.818Z,13.00
2018-05-17T22:22:10.366Z,13.00
2018-05-17T22:24:38.702Z,12.90
2018-05-17T22:27:06.239Z,12.90
2018-05-17T22:29:33.762Z,12.80
2018-05-17T22:32:01.284Z,12.80
2018-05-17T22:34:28.830Z,12.80
2018-05-17T22:36:57.145Z,12.70
2018-05-17T22:39:24.655Z,12.70
2018-05-17T22:41:52.957Z,12.70
2018-05-17T22:44:20.478Z,12.70
2018-05-17T22:46:48.009Z,12.70
2018-05-17T22:49:16.297Z,12.70
2018-05-17T22:51:43.868Z,12.70
2018-05-17T22:54:11.338Z,12.60
2018-05-17T22:56:50.613Z,12.60
2018-05-17T22:59:18.890Z,12.50
2018-05-17T23:01:46.460Z,12.50
2018-05-17T23:04:14.044Z,12.50
2018-05-17T23:06:42.329Z,12.40
2018-05-17T23:09:10.620Z,12.40
2018-05-17T23:11:38.911Z,12.40
2018-05-17T23:14:07.176Z,12.30
2018-05-17T23:16:34.753Z,12.30
2018-05-17T23:19:03.055Z,12.20
2018-05-17T23:21:31.320Z,12.20
2018-05-17T23:23:58.846Z,12.20
2018-05-17T23:26:26.340Z,12.20
2018-05-17T23:28:53.887Z,12.20
2018-05-17T23:31:21.383Z,12.10
2018-05-17T23:33:48.900Z,12.10
2018-05-17T23:36:17.192Z,12.00
2018-05-17T23:38:45.487Z,11.90
2018-05-17T23:41:25.670Z,12.00
2018-05-17T23:43:53.187Z,11.90
2018-05-17T23:46:20.684Z,11.90
2018-05-17T23:48:48.218Z,11.90
2018-05-17T23:51:15.720Z,11.90
2018-05-17T23:53:43.312Z,11.90
2018-05-17T23:56:11.572Z,11.90
2018-05-17T23:58:39.089Z,11.90
